sensor_id;sensor_type;location;lat;lon;timestamp;P1;durP1;ratioP1;P2;durP2;ratioP2
59659;SDS011;45534;52.690;6.268;2023-08-08T00:01:06;7.63;;;3.53;;
59659;SDS011;45534;52.690;6.268;2023-08-08T00:03:31;6.32;;;3.17;;
59659;SDS011;45534;52.690;6.268;2023-08-08T00:05:57;3.25;;;2.65;;
59659;SDS011;45534;52.690;6.268;2023-08-08T00:08:23;5.20;;;3.30;;
59659;SDS011;45534;52.690;6.268;2023-08-08T00:10:48;4.20;;;3.28;;
59659;SDS011;45534;52.690;6.268;2023-08-08T00:13:14;9.10;;;3.80;;
59659;SDS011;45534;52.690;6.268;2023-08-08T00:15:40;3.50;;;3.10;;
59659;SDS011;45534;52.690;6.268;2023-08-08T00:18:06;6.57;;;4.07;;
59659;SDS011;45534;52.690;6.268;2023-08-08T00:20:32;5.68;;;3.42;;
59659;SDS011;45534;52.690;6.268;2023-08-08T00:22:57;4.18;;;3.78;;
59659;SDS011;45534;52.690;6.268;2023-08-08T00:25:23;5.38;;;4.55;;
59659;SDS011;45534;52.690;6.268;2023-08-08T00:27:49;8.20;;;4.47;;
59659;SDS011;45534;52.690;6.268;2023-08-08T00:30:15;11.45;;;3.35;;
59659;SDS011;45534;52.690;6.268;2023-08-08T00:32:41;6.63;;;4.32;;
59659;SDS011;45534;52.690;6.268;2023-08-08T00:35:07;7.88;;;3.65;;
59659;SDS011;45534;52.690;6.268;2023-08-08T00:37:33;3.60;;;2.75;;
59659;SDS011;45534;52.690;6.268;2023-08-08T00:39:58;6.57;;;4.53;;
59659;SDS011;45534;52.690;6.268;2023-08-08T00:42:24;5.72;;;4.00;;
59659;SDS011;45534;52.690;6.268;2023-08-08T00:44:50;7.70;;;4.80;;
59659;SDS011;45534;52.690;6.268;2023-08-08T00:47:15;3.85;;;3.38;;
59659;SDS011;45534;52.690;6.268;2023-08-08T00:49:41;8.05;;;4.45;;
59659;SDS011;45534;52.690;6.268;2023-08-08T00:52:09;4.53;;;3.40;;
59659;SDS011;45534;52.690;6.268;2023-08-08T00:54:35;8.02;;;4.60;;
59659;SDS011;45534;52.690;6.268;2023-08-08T00:57:01;5.28;;;2.92;;
59659;SDS011;45534;52.690;6.268;2023-08-08T00:59:26;7.18;;;4.20;;
59659;SDS011;45534;52.690;6.268;2023-08-08T01:01:52;3.97;;;3.22;;
59659;SDS011;45534;52.690;6.268;2023-08-08T01:04:18;4.10;;;3.47;;
59659;SDS011;45534;52.690;6.268;2023-08-08T01:09:57;5.93;;;3.03;;
59659;SDS011;45534;52.690;6.268;2023-08-08T01:12:26;6.28;;;3.90;;
59659;SDS011;45534;52.690;6.268;2023-08-08T01:14:52;11.68;;;5.82;;
59659;SDS011;45534;52.690;6.268;2023-08-08T01:17:19;6.53;;;3.97;;
59659;SDS011;45534;52.690;6.268;2023-08-08T01:19:46;9.38;;;3.25;;
59659;SDS011;45534;52.690;6.268;2023-08-08T01:22:25;6.95;;;4.85;;
59659;SDS011;45534;52.690;6.268;2023-08-08T01:24:58;5.68;;;3.75;;
59659;SDS011;45534;52.690;6.268;2023-08-08T01:27:25;4.57;;;3.63;;
59659;SDS011;45534;52.690;6.268;2023-08-08T01:29:52;10.88;;;3.33;;
59659;SDS011;45534;52.690;6.268;2023-08-08T01:32:18;4.05;;;3.58;;
59659;SDS011;45534;52.690;6.268;2023-08-08T01:34:43;9.82;;;4.80;;
59659;SDS011;45534;52.690;6.268;2023-08-08T01:37:32;6.40;;;3.35;;
59659;SDS011;45534;52.690;6.268;2023-08-08T01:40:04;5.60;;;4.20;;
59659;SDS011;45534;52.690;6.268;2023-08-08T01:42:31;6.10;;;3.20;;
59659;SDS011;45534;52.690;6.268;2023-08-08T01:44:57;4.55;;;3.67;;
59659;SDS011;45534;52.690;6.268;2023-08-08T01:47:23;3.35;;;2.90;;
59659;SDS011;45534;52.690;6.268;2023-08-08T01:49:49;10.50;;;3.92;;
59659;SDS011;45534;52.690;6.268;2023-08-08T01:52:15;4.60;;;3.60;;
59659;SDS011;45534;52.690;6.268;2023-08-08T01:54:41;10.18;;;5.75;;
59659;SDS011;45534;52.690;6.268;2023-08-08T01:57:07;6.53;;;4.70;;
59659;SDS011;45534;52.690;6.268;2023-08-08T01:59:33;11.75;;;4.63;;
59659;SDS011;45534;52.690;6.268;2023-08-08T02:01:59;5.80;;;4.82;;
59659;SDS011;45534;52.690;6.268;2023-08-08T02:04:25;7.82;;;5.88;;
59659;SDS011;45534;52.690;6.268;2023-08-08T02:06:50;10.55;;;5.05;;
59659;SDS011;45534;52.690;6.268;2023-08-08T02:09:16;6.55;;;3.92;;
59659;SDS011;45534;52.690;6.268;2023-08-08T02:11:42;4.60;;;4.18;;
59659;SDS011;45534;52.690;6.268;2023-08-08T02:14:07;5.72;;;4.57;;
59659;SDS011;45534;52.690;6.268;2023-08-08T02:16:33;9.18;;;5.50;;
59659;SDS011;45534;52.690;6.268;2023-08-08T02:18:59;10.38;;;6.15;;
59659;SDS011;45534;52.690;6.268;2023-08-08T02:21:25;8.73;;;2.92;;
59659;SDS011;45534;52.690;6.268;2023-08-08T02:23:51;13.90;;;6.05;;
59659;SDS011;45534;52.690;6.268;2023-08-08T02:26:17;6.25;;;3.90;;
59659;SDS011;45534;52.690;6.268;2023-08-08T02:28:43;8.80;;;5.05;;
59659;SDS011;45534;52.690;6.268;2023-08-08T02:31:09;9.48;;;5.80;;
59659;SDS011;45534;52.690;6.268;2023-08-08T02:33:34;16.15;;;3.05;;
59659;SDS011;45534;52.690;6.268;2023-08-08T02:36:00;4.03;;;3.33;;
59659;SDS011;45534;52.690;6.268;2023-08-08T02:38:26;5.15;;;3.65;;
59659;SDS011;45534;52.690;6.268;2023-08-08T02:40:51;14.82;;;5.45;;
59659;SDS011;45534;52.690;6.268;2023-08-08T02:43:18;9.52;;;4.13;;
59659;SDS011;45534;52.690;6.268;2023-08-08T02:45:43;5.68;;;3.80;;
59659;SDS011;45534;52.690;6.268;2023-08-08T02:48:09;7.13;;;4.28;;
59659;SDS011;45534;52.690;6.268;2023-08-08T02:50:35;6.38;;;2.95;;
59659;SDS011;45534;52.690;6.268;2023-08-08T02:53:00;4.25;;;3.47;;
59659;SDS011;45534;52.690;6.268;2023-08-08T02:55:26;6.75;;;4.95;;
59659;SDS011;45534;52.690;6.268;2023-08-08T02:57:52;5.07;;;4.03;;
59659;SDS011;45534;52.690;6.268;2023-08-08T03:00:17;5.40;;;2.95;;
59659;SDS011;45534;52.690;6.268;2023-08-08T03:02:43;22.25;;;5.47;;
59659;SDS011;45534;52.690;6.268;2023-08-08T03:05:09;5.22;;;3.80;;
59659;SDS011;45534;52.690;6.268;2023-08-08T03:07:34;11.80;;;5.07;;
59659;SDS011;45534;52.690;6.268;2023-08-08T03:10:00;4.07;;;3.67;;
59659;SDS011;45534;52.690;6.268;2023-08-08T03:12:26;3.92;;;3.35;;
59659;SDS011;45534;52.690;6.268;2023-08-08T03:14:52;4.28;;;3.88;;
59659;SDS011;45534;52.690;6.268;2023-08-08T03:17:18;4.65;;;3.17;;
59659;SDS011;45534;52.690;6.268;2023-08-08T03:19:43;8.88;;;3.30;;
59659;SDS011;45534;52.690;6.268;2023-08-08T03:22:09;3.25;;;2.97;;
59659;SDS011;45534;52.690;6.268;2023-08-08T03:24:35;2.95;;;2.58;;
59659;SDS011;45534;52.690;6.268;2023-08-08T03:27:00;5.40;;;3.63;;
59659;SDS011;45534;52.690;6.268;2023-08-08T03:29:26;10.85;;;2.90;;
59659;SDS011;45534;52.690;6.268;2023-08-08T03:31:51;6.30;;;3.10;;
59659;SDS011;45534;52.690;6.268;2023-08-08T03:34:17;29.67;;;2.45;;
59659;SDS011;45534;52.690;6.268;2023-08-08T03:36:43;7.25;;;3.40;;
59659;SDS011;45534;52.690;6.268;2023-08-08T03:39:09;13.43;;;4.57;;
59659;SDS011;45534;52.690;6.268;2023-08-08T03:41:34;3.88;;;2.83;;
59659;SDS011;45534;52.690;6.268;2023-08-08T03:44:01;5.47;;;3.15;;
59659;SDS011;45534;52.690;6.268;2023-08-08T03:46:28;3.60;;;3.30;;
59659;SDS011;45534;52.690;6.268;2023-08-08T03:48:53;2.10;;;1.88;;
59659;SDS011;45534;52.690;6.268;2023-08-08T03:51:19;3.70;;;2.20;;
59659;SDS011;45534;52.690;6.268;2023-08-08T03:53:45;3.58;;;2.25;;
59659;SDS011;45534;52.690;6.268;2023-08-08T03:56:10;2.58;;;2.30;;
59659;SDS011;45534;52.690;6.268;2023-08-08T03:58:37;2.28;;;2.05;;
59659;SDS011;45534;52.690;6.268;2023-08-08T04:01:03;2.60;;;2.40;;
59659;SDS011;45534;52.690;6.268;2023-08-08T04:03:29;4.50;;;2.28;;
59659;SDS011;45534;52.690;6.268;2023-08-08T04:05:54;1.70;;;1.60;;
59659;SDS011;45534;52.690;6.268;2023-08-08T04:08:20;3.40;;;2.00;;
59659;SDS011;45534;52.690;6.268;2023-08-08T04:10:46;13.35;;;3.40;;
59659;SDS011;45534;52.690;6.268;2023-08-08T04:13:12;4.07;;;1.92;;
59659;SDS011;45534;52.690;6.268;2023-08-08T04:15:38;3.90;;;2.08;;
59659;SDS011;45534;52.690;6.268;2023-08-08T04:18:04;4.25;;;1.98;;
59659;SDS011;45534;52.690;6.268;2023-08-08T04:20:32;1.42;;;1.33;;
59659;SDS011;45534;52.690;6.268;2023-08-08T04:22:58;8.13;;;3.40;;
59659;SDS011;45534;52.690;6.268;2023-08-08T04:25:24;2.08;;;1.80;;
59659;SDS011;45534;52.690;6.268;2023-08-08T04:27:49;6.32;;;1.92;;
59659;SDS011;45534;52.690;6.268;2023-08-08T04:30:15;3.13;;;2.10;;
59659;SDS011;45534;52.690;6.268;2023-08-08T04:32:41;1.63;;;1.52;;
59659;SDS011;45534;52.690;6.268;2023-08-08T04:35:07;1.77;;;1.63;;
59659;SDS011;45534;52.690;6.268;2023-08-08T04:37:32;2.47;;;2.28;;
59659;SDS011;45534;52.690;6.268;2023-08-08T04:39:58;5.07;;;1.80;;
59659;SDS011;45534;52.690;6.268;2023-08-08T04:42:24;2.15;;;1.50;;
59659;SDS011;45534;52.690;6.268;2023-08-08T04:44:49;2.17;;;2.08;;
59659;SDS011;45534;52.690;6.268;2023-08-08T04:47:15;12.85;;;1.70;;
59659;SDS011;45534;52.690;6.268;2023-08-08T04:49:41;2.10;;;1.50;;
59659;SDS011;45534;52.690;6.268;2023-08-08T04:52:06;3.88;;;1.70;;
59659;SDS011;45534;52.690;6.268;2023-08-08T04:54:32;7.45;;;3.92;;
59659;SDS011;45534;52.690;6.268;2023-08-08T04:56:58;3.60;;;2.20;;
59659;SDS011;45534;52.690;6.268;2023-08-08T04:59:23;2.00;;;1.90;;
59659;SDS011;45534;52.690;6.268;2023-08-08T05:01:49;2.92;;;1.67;;
59659;SDS011;45534;52.690;6.268;2023-08-08T05:04:15;2.70;;;1.65;;
59659;SDS011;45534;52.690;6.268;2023-08-08T05:06:42;2.08;;;1.63;;
59659;SDS011;45534;52.690;6.268;2023-08-08T05:09:08;1.75;;;1.65;;
59659;SDS011;45534;52.690;6.268;2023-08-08T05:11:34;8.95;;;3.20;;
59659;SDS011;45534;52.690;6.268;2023-08-08T05:14:00;4.45;;;1.70;;
59659;SDS011;45534;52.690;6.268;2023-08-08T05:16:27;3.42;;;2.15;;
59659;SDS011;45534;52.690;6.268;2023-08-08T05:18:53;1.88;;;1.67;;
59659;SDS011;45534;52.690;6.268;2023-08-08T05:21:18;10.45;;;1.60;;
59659;SDS011;45534;52.690;6.268;2023-08-08T05:23:44;4.65;;;2.40;;
59659;SDS011;45534;52.690;6.268;2023-08-08T05:26:10;2.78;;;1.35;;
59659;SDS011;45534;52.690;6.268;2023-08-08T05:28:36;11.27;;;2.50;;
59659;SDS011;45534;52.690;6.268;2023-08-08T05:31:02;2.53;;;2.08;;
59659;SDS011;45534;52.690;6.268;2023-08-08T05:33:27;5.07;;;1.52;;
59659;SDS011;45534;52.690;6.268;2023-08-08T05:35:53;1.70;;;1.35;;
59659;SDS011;45534;52.690;6.268;2023-08-08T05:38:18;7.30;;;1.60;;
59659;SDS011;45534;52.690;6.268;2023-08-08T05:40:44;5.13;;;1.73;;
59659;SDS011;45534;52.690;6.268;2023-08-08T05:43:10;8.18;;;1.63;;
59659;SDS011;45534;52.690;6.268;2023-08-08T05:45:35;6.80;;;1.55;;
59659;SDS011;45534;52.690;6.268;2023-08-08T05:48:01;1.67;;;1.58;;
59659;SDS011;45534;52.690;6.268;2023-08-08T05:50:27;3.40;;;1.55;;
59659;SDS011;45534;52.690;6.268;2023-08-08T05:52:53;13.00;;;2.10;;
59659;SDS011;45534;52.690;6.268;2023-08-08T05:55:19;1.83;;;1.73;;
59659;SDS011;45534;52.690;6.268;2023-08-08T05:57:44;6.03;;;1.98;;
59659;SDS011;45534;52.690;6.268;2023-08-08T06:00:10;2.63;;;1.65;;
59659;SDS011;45534;52.690;6.268;2023-08-08T06:02:37;3.20;;;2.50;;
59659;SDS011;45534;52.690;6.268;2023-08-08T06:05:03;3.80;;;1.73;;
59659;SDS011;45534;52.690;6.268;2023-08-08T06:07:29;2.35;;;2.00;;
59659;SDS011;45534;52.690;6.268;2023-08-08T06:09:55;10.60;;;3.03;;
59659;SDS011;45534;52.690;6.268;2023-08-08T06:12:21;4.68;;;2.08;;
59659;SDS011;45534;52.690;6.268;2023-08-08T06:14:46;1.08;;;1.08;;
59659;SDS011;45534;52.690;6.268;2023-08-08T06:17:13;5.75;;;1.60;;
59659;SDS011;45534;52.690;6.268;2023-08-08T06:19:39;1.20;;;1.20;;
59659;SDS011;45534;52.690;6.268;2023-08-08T06:22:05;4.30;;;1.67;;
59659;SDS011;45534;52.690;6.268;2023-08-08T06:24:31;6.30;;;2.03;;
59659;SDS011;45534;52.690;6.268;2023-08-08T06:26:57;7.70;;;4.38;;
59659;SDS011;45534;52.690;6.268;2023-08-08T06:29:23;3.30;;;1.55;;
59659;SDS011;45534;52.690;6.268;2023-08-08T06:31:48;3.20;;;2.78;;
59659;SDS011;45534;52.690;6.268;2023-08-08T06:34:14;2.13;;;1.40;;
59659;SDS011;45534;52.690;6.268;2023-08-08T06:36:40;1.77;;;1.67;;
59659;SDS011;45534;52.690;6.268;2023-08-08T06:39:06;14.90;;;2.92;;
59659;SDS011;45534;52.690;6.268;2023-08-08T06:41:32;2.45;;;2.25;;
59659;SDS011;45534;52.690;6.268;2023-08-08T06:43:58;4.55;;;2.55;;
59659;SDS011;45534;52.690;6.268;2023-08-08T06:46:23;7.05;;;3.25;;
59659;SDS011;45534;52.690;6.268;2023-08-08T06:48:50;4.32;;;2.28;;
59659;SDS011;45534;52.690;6.268;2023-08-08T06:51:18;3.50;;;1.70;;
59659;SDS011;45534;52.690;6.268;2023-08-08T06:53:43;6.03;;;2.35;;
59659;SDS011;45534;52.690;6.268;2023-08-08T06:56:09;2.97;;;2.10;;
59659;SDS011;45534;52.690;6.268;2023-08-08T06:58:35;1.83;;;1.73;;
59659;SDS011;45534;52.690;6.268;2023-08-08T07:01:00;3.63;;;1.60;;
59659;SDS011;45534;52.690;6.268;2023-08-08T07:03:26;2.63;;;1.45;;
59659;SDS011;45534;52.690;6.268;2023-08-08T07:05:52;1.48;;;1.48;;
59659;SDS011;45534;52.690;6.268;2023-08-08T07:08:18;2.08;;;1.77;;
59659;SDS011;45534;52.690;6.268;2023-08-08T07:10:44;4.80;;;2.58;;
59659;SDS011;45534;52.690;6.268;2023-08-08T07:13:10;1.70;;;1.58;;
59659;SDS011;45534;52.690;6.268;2023-08-08T07:15:36;16.95;;;3.05;;
59659;SDS011;45534;52.690;6.268;2023-08-08T07:18:02;6.53;;;3.17;;
59659;SDS011;45534;52.690;6.268;2023-08-08T07:20:28;3.70;;;2.03;;
59659;SDS011;45534;52.690;6.268;2023-08-08T07:22:54;1.58;;;1.48;;
59659;SDS011;45534;52.690;6.268;2023-08-08T07:25:19;4.22;;;1.40;;
59659;SDS011;45534;52.690;6.268;2023-08-08T07:27:45;1.38;;;1.30;;
59659;SDS011;45534;52.690;6.268;2023-08-08T07:30:11;3.20;;;2.13;;
59659;SDS011;45534;52.690;6.268;2023-08-08T07:32:37;2.50;;;1.98;;
59659;SDS011;45534;52.690;6.268;2023-08-08T07:35:05;5.82;;;2.30;;
59659;SDS011;45534;52.690;6.268;2023-08-08T07:37:33;1.95;;;1.85;;
59659;SDS011;45534;52.690;6.268;2023-08-08T07:39:59;2.35;;;1.42;;
59659;SDS011;45534;52.690;6.268;2023-08-08T07:42:25;2.58;;;1.73;;
59659;SDS011;45534;52.690;6.268;2023-08-08T07:44:51;1.98;;;1.85;;
59659;SDS011;45534;52.690;6.268;2023-08-08T07:47:17;3.60;;;1.70;;
59659;SDS011;45534;52.690;6.268;2023-08-08T07:49:42;4.43;;;2.60;;
59659;SDS011;45534;52.690;6.268;2023-08-08T07:52:08;1.52;;;1.42;;
59659;SDS011;45534;52.690;6.268;2023-08-08T07:54:34;1.35;;;1.15;;
59659;SDS011;45534;52.690;6.268;2023-08-08T07:57:00;2.10;;;1.98;;
59659;SDS011;45534;52.690;6.268;2023-08-08T07:59:25;3.70;;;1.98;;
59659;SDS011;45534;52.690;6.268;2023-08-08T08:01:51;1.70;;;1.60;;
59659;SDS011;45534;52.690;6.268;2023-08-08T08:04:17;5.25;;;1.80;;
59659;SDS011;45534;52.690;6.268;2023-08-08T08:06:43;6.20;;;2.45;;
59659;SDS011;45534;52.690;6.268;2023-08-08T08:09:09;2.25;;;2.08;;
59659;SDS011;45534;52.690;6.268;2023-08-08T08:11:34;3.35;;;1.40;;
59659;SDS011;45534;52.690;6.268;2023-08-08T08:14:00;1.73;;;1.67;;
59659;SDS011;45534;52.690;6.268;2023-08-08T08:16:26;5.57;;;3.53;;
59659;SDS011;45534;52.690;6.268;2023-08-08T08:18:52;2.08;;;1.85;;
59659;SDS011;45534;52.690;6.268;2023-08-08T08:21:17;1.48;;;1.30;;
59659;SDS011;45534;52.690;6.268;2023-08-08T08:23:43;4.72;;;1.73;;
59659;SDS011;45534;52.690;6.268;2023-08-08T08:26:10;2.65;;;1.63;;
59659;SDS011;45534;52.690;6.268;2023-08-08T08:28:37;1.27;;;1.25;;
59659;SDS011;45534;52.690;6.268;2023-08-08T08:31:05;1.60;;;1.50;;
59659;SDS011;45534;52.690;6.268;2023-08-08T08:33:31;1.38;;;1.35;;
59659;SDS011;45534;52.690;6.268;2023-08-08T08:35:57;1.70;;;1.60;;
59659;SDS011;45534;52.690;6.268;2023-08-08T08:38:22;18.52;;;2.92;;
59659;SDS011;45534;52.690;6.268;2023-08-08T08:40:48;1.67;;;1.40;;
59659;SDS011;45534;52.690;6.268;2023-08-08T08:43:14;1.25;;;1.15;;
59659;SDS011;45534;52.690;6.268;2023-08-08T08:45:42;5.57;;;2.75;;
59659;SDS011;45534;52.690;6.268;2023-08-08T08:48:11;5.18;;;2.00;;
59659;SDS011;45534;52.690;6.268;2023-08-08T08:50:38;2.05;;;1.73;;
59659;SDS011;45534;52.690;6.268;2023-08-08T08:53:05;1.77;;;1.20;;
59659;SDS011;45534;52.690;6.268;2023-08-08T08:55:31;2.85;;;2.10;;
59659;SDS011;45534;52.690;6.268;2023-08-08T08:57:57;2.97;;;1.55;;
59659;SDS011;45534;52.690;6.268;2023-08-08T09:00:23;5.15;;;1.70;;
59659;SDS011;45534;52.690;6.268;2023-08-08T09:02:51;1.73;;;1.63;;
59659;SDS011;45534;52.690;6.268;2023-08-08T09:05:17;1.58;;;1.27;;
59659;SDS011;45534;52.690;6.268;2023-08-08T09:07:47;2.17;;;1.70;;
59659;SDS011;45534;52.690;6.268;2023-08-08T09:10:14;3.80;;;1.58;;
59659;SDS011;45534;52.690;6.268;2023-08-08T09:12:40;3.92;;;1.63;;
59659;SDS011;45534;52.690;6.268;2023-08-08T09:15:06;9.13;;;3.38;;
59659;SDS011;45534;52.690;6.268;2023-08-08T09:17:32;7.35;;;2.65;;
59659;SDS011;45534;52.690;6.268;2023-08-08T09:19:58;7.22;;;2.67;;
59659;SDS011;45534;52.690;6.268;2023-08-08T09:22:24;3.83;;;2.28;;
59659;SDS011;45534;52.690;6.268;2023-08-08T09:24:51;2.08;;;1.50;;
59659;SDS011;45534;52.690;6.268;2023-08-08T09:27:17;1.15;;;1.15;;
59659;SDS011;45534;52.690;6.268;2023-08-08T09:29:43;5.25;;;3.35;;
59659;SDS011;45534;52.690;6.268;2023-08-08T09:32:09;5.38;;;1.85;;
59659;SDS011;45534;52.690;6.268;2023-08-08T09:34:35;4.82;;;1.88;;
59659;SDS011;45534;52.690;6.268;2023-08-08T09:37:01;5.97;;;1.30;;
59659;SDS011;45534;52.690;6.268;2023-08-08T09:39:28;6.43;;;2.65;;
59659;SDS011;45534;52.690;6.268;2023-08-08T09:41:55;1.20;;;1.20;;
59659;SDS011;45534;52.690;6.268;2023-08-08T09:44:25;1.67;;;1.58;;
59659;SDS011;45534;52.690;6.268;2023-08-08T09:46:52;1.65;;;1.55;;
59659;SDS011;45534;52.690;6.268;2023-08-08T09:49:18;5.13;;;1.30;;
59659;SDS011;45534;52.690;6.268;2023-08-08T09:51:46;1.60;;;1.60;;
59659;SDS011;45534;52.690;6.268;2023-08-08T09:54:14;2.03;;;1.40;;
59659;SDS011;45534;52.690;6.268;2023-08-08T09:56:40;1.70;;;1.60;;
59659;SDS011;45534;52.690;6.268;2023-08-08T09:59:07;5.38;;;2.80;;
59659;SDS011;45534;52.690;6.268;2023-08-08T10:01:34;1.58;;;1.48;;
59659;SDS011;45534;52.690;6.268;2023-08-08T10:04:00;6.82;;;4.40;;
59659;SDS011;45534;52.690;6.268;2023-08-08T10:06:28;18.05;;;3.50;;
59659;SDS011;45534;52.690;6.268;2023-08-08T10:08:55;1.83;;;1.70;;
59659;SDS011;45534;52.690;6.268;2023-08-08T10:11:21;2.72;;;1.95;;
59659;SDS011;45534;52.690;6.268;2023-08-08T10:13:49;1.00;;;1.00;;
59659;SDS011;45534;52.690;6.268;2023-08-08T10:16:16;5.32;;;1.88;;
59659;SDS011;45534;52.690;6.268;2023-08-08T10:18:44;1.77;;;1.67;;
59659;SDS011;45534;52.690;6.268;2023-08-08T10:21:24;1.35;;;1.35;;
59659;SDS011;45534;52.690;6.268;2023-08-08T10:24:00;5.53;;;2.17;;
59659;SDS011;45534;52.690;6.268;2023-08-08T10:26:27;1.45;;;1.40;;
59659;SDS011;45534;52.690;6.268;2023-08-08T10:28:56;3.50;;;1.85;;
59659;SDS011;45534;52.690;6.268;2023-08-08T10:31:23;2.53;;;1.52;;
59659;SDS011;45534;52.690;6.268;2023-08-08T10:33:49;3.70;;;1.85;;
59659;SDS011;45534;52.690;6.268;2023-08-08T10:36:15;2.40;;;2.25;;
59659;SDS011;45534;52.690;6.268;2023-08-08T10:38:44;7.68;;;2.45;;
59659;SDS011;45534;52.690;6.268;2023-08-08T10:41:15;1.92;;;1.83;;
59659;SDS011;45534;52.690;6.268;2023-08-08T10:43:49;2.45;;;1.58;;
59659;SDS011;45534;52.690;6.268;2023-08-08T10:46:22;2.97;;;2.13;;
59659;SDS011;45534;52.690;6.268;2023-08-08T10:48:49;2.30;;;2.10;;
59659;SDS011;45534;52.690;6.268;2023-08-08T10:51:16;2.40;;;1.80;;
59659;SDS011;45534;52.690;6.268;2023-08-08T10:53:42;2.83;;;1.95;;
59659;SDS011;45534;52.690;6.268;2023-08-08T10:56:11;1.55;;;1.30;;
59659;SDS011;45534;52.690;6.268;2023-08-08T10:58:39;4.28;;;3.92;;
59659;SDS011;45534;52.690;6.268;2023-08-08T11:01:06;3.97;;;2.28;;
59659;SDS011;45534;52.690;6.268;2023-08-08T11:03:37;1.55;;;1.55;;
59659;SDS011;45534;52.690;6.268;2023-08-08T11:06:05;1.85;;;1.63;;
59659;SDS011;45534;52.690;6.268;2023-08-08T11:08:32;2.05;;;1.70;;
59659;SDS011;45534;52.690;6.268;2023-08-08T11:10:58;1.63;;;1.52;;
59659;SDS011;45534;52.690;6.268;2023-08-08T11:13:24;1.48;;;1.48;;
59659;SDS011;45534;52.690;6.268;2023-08-08T11:15:51;2.55;;;1.40;;
59659;SDS011;45534;52.690;6.268;2023-08-08T11:18:17;1.95;;;1.85;;
59659;SDS011;45534;52.690;6.268;2023-08-08T11:20:43;1.92;;;1.75;;
59659;SDS011;45534;52.690;6.268;2023-08-08T11:23:09;2.38;;;1.52;;
59659;SDS011;45534;52.690;6.268;2023-08-08T11:25:39;5.68;;;2.25;;
59659;SDS011;45534;52.690;6.268;2023-08-08T11:30:37;3.70;;;2.05;;
59659;SDS011;45534;52.690;6.268;2023-08-08T11:33:05;5.13;;;1.70;;
59659;SDS011;45534;52.690;6.268;2023-08-08T11:35:31;2.25;;;2.15;;
59659;SDS011;45534;52.690;6.268;2023-08-08T11:37:59;1.88;;;1.77;;
59659;SDS011;45534;52.690;6.268;2023-08-08T11:40:26;5.75;;;2.08;;
59659;SDS011;45534;52.690;6.268;2023-08-08T11:42:53;7.32;;;1.88;;
59659;SDS011;45534;52.690;6.268;2023-08-08T11:45:20;2.47;;;2.00;;
59659;SDS011;45534;52.690;6.268;2023-08-08T11:47:50;2.78;;;2.60;;
59659;SDS011;45534;52.690;6.268;2023-08-08T11:50:18;3.72;;;2.67;;
59659;SDS011;45534;52.690;6.268;2023-08-08T11:52:51;2.30;;;1.95;;
59659;SDS011;45534;52.690;6.268;2023-08-08T11:55:18;1.98;;;1.63;;
59659;SDS011;45534;52.690;6.268;2023-08-08T11:57:47;4.78;;;3.53;;
59659;SDS011;45534;52.690;6.268;2023-08-08T12:00:15;2.58;;;2.22;;
59659;SDS011;45534;52.690;6.268;2023-08-08T12:02:44;1.70;;;1.60;;
59659;SDS011;45534;52.690;6.268;2023-08-08T12:05:11;7.38;;;3.25;;
59659;SDS011;45534;52.690;6.268;2023-08-08T12:07:38;3.55;;;1.48;;
59659;SDS011;45534;52.690;6.268;2023-08-08T12:10:13;1.80;;;1.70;;
59659;SDS011;45534;52.690;6.268;2023-08-08T12:12:42;2.35;;;2.20;;
59659;SDS011;45534;52.690;6.268;2023-08-08T12:15:08;2.88;;;2.47;;
59659;SDS011;45534;52.690;6.268;2023-08-08T12:17:35;1.95;;;1.85;;
59659;SDS011;45534;52.690;6.268;2023-08-08T12:20:05;4.45;;;2.75;;
59659;SDS011;45534;52.690;6.268;2023-08-08T12:22:32;4.15;;;1.90;;
59659;SDS011;45534;52.690;6.268;2023-08-08T12:24:58;1.60;;;1.50;;
59659;SDS011;45534;52.690;6.268;2023-08-08T12:27:24;3.78;;;1.85;;
59659;SDS011;45534;52.690;6.268;2023-08-08T12:29:49;4.53;;;2.08;;
59659;SDS011;45534;52.690;6.268;2023-08-08T12:32:15;2.35;;;2.17;;
59659;SDS011;45534;52.690;6.268;2023-08-08T12:34:41;6.80;;;2.40;;
59659;SDS011;45534;52.690;6.268;2023-08-08T12:37:06;1.25;;;1.23;;
59659;SDS011;45534;52.690;6.268;2023-08-08T12:39:32;2.83;;;1.98;;
59659;SDS011;45534;52.690;6.268;2023-08-08T12:41:58;2.22;;;1.45;;
59659;SDS011;45534;52.690;6.268;2023-08-08T12:44:26;1.80;;;1.55;;
59659;SDS011;45534;52.690;6.268;2023-08-08T12:46:52;1.95;;;1.45;;
59659;SDS011;45534;52.690;6.268;2023-08-08T12:49:18;3.20;;;2.28;;
59659;SDS011;45534;52.690;6.268;2023-08-08T12:51:44;4.60;;;2.55;;
59659;SDS011;45534;52.690;6.268;2023-08-08T12:54:09;1.63;;;1.52;;
59659;SDS011;45534;52.690;6.268;2023-08-08T12:56:35;3.80;;;2.55;;
59659;SDS011;45534;52.690;6.268;2023-08-08T12:59:01;2.17;;;1.65;;
59659;SDS011;45534;52.690;6.268;2023-08-08T13:01:28;2.22;;;1.60;;
59659;SDS011;45534;52.690;6.268;2023-08-08T13:03:56;1.95;;;1.40;;
59659;SDS011;45534;52.690;6.268;2023-08-08T13:06:22;1.80;;;1.42;;
59659;SDS011;45534;52.690;6.268;2023-08-08T13:08:47;4.13;;;3.15;;
59659;SDS011;45534;52.690;6.268;2023-08-08T13:11:13;1.92;;;1.48;;
59659;SDS011;45534;52.690;6.268;2023-08-08T13:13:39;1.98;;;1.80;;
59659;SDS011;45534;52.690;6.268;2023-08-08T13:16:04;2.05;;;1.90;;
59659;SDS011;45534;52.690;6.268;2023-08-08T13:18:30;2.20;;;2.10;;
59659;SDS011;45534;52.690;6.268;2023-08-08T13:20:56;5.05;;;1.98;;
59659;SDS011;45534;52.690;6.268;2023-08-08T13:23:21;1.90;;;1.80;;
59659;SDS011;45534;52.690;6.268;2023-08-08T13:25:47;3.53;;;1.63;;
59659;SDS011;45534;52.690;6.268;2023-08-08T13:28:14;3.25;;;2.95;;
59659;SDS011;45534;52.690;6.268;2023-08-08T13:30:40;1.60;;;1.50;;
59659;SDS011;45534;52.690;6.268;2023-08-08T13:33:08;3.13;;;1.67;;
59659;SDS011;45534;52.690;6.268;2023-08-08T13:35:34;1.65;;;1.55;;
59659;SDS011;45534;52.690;6.268;2023-08-08T13:37:59;1.85;;;1.75;;
59659;SDS011;45534;52.690;6.268;2023-08-08T13:40:26;2.13;;;1.90;;
59659;SDS011;45534;52.690;6.268;2023-08-08T13:42:52;1.90;;;1.65;;
59659;SDS011;45534;52.690;6.268;2023-08-08T13:45:18;1.40;;;1.40;;
59659;SDS011;45534;52.690;6.268;2023-08-08T13:47:45;3.05;;;1.67;;
59659;SDS011;45534;52.690;6.268;2023-08-08T13:50:11;3.25;;;1.27;;
59659;SDS011;45534;52.690;6.268;2023-08-08T13:52:38;2.20;;;1.92;;
59659;SDS011;45534;52.690;6.268;2023-08-08T13:55:05;2.70;;;2.25;;
59659;SDS011;45534;52.690;6.268;2023-08-08T13:57:34;6.75;;;2.28;;
59659;SDS011;45534;52.690;6.268;2023-08-08T14:00:00;2.92;;;1.42;;
59659;SDS011;45534;52.690;6.268;2023-08-08T14:02:26;1.40;;;1.30;;
59659;SDS011;45534;52.690;6.268;2023-08-08T14:04:52;1.30;;;1.20;;
59659;SDS011;45534;52.690;6.268;2023-08-08T14:07:18;4.10;;;1.60;;
59659;SDS011;45534;52.690;6.268;2023-08-08T14:09:44;1.70;;;1.60;;
59659;SDS011;45534;52.690;6.268;2023-08-08T14:12:09;2.58;;;1.90;;
59659;SDS011;45534;52.690;6.268;2023-08-08T14:14:35;3.50;;;2.35;;
59659;SDS011;45534;52.690;6.268;2023-08-08T14:17:01;1.58;;;1.48;;
59659;SDS011;45534;52.690;6.268;2023-08-08T14:19:29;9.57;;;3.70;;
59659;SDS011;45534;52.690;6.268;2023-08-08T14:21:55;8.85;;;2.80;;
59659;SDS011;45534;52.690;6.268;2023-08-08T14:24:21;1.58;;;1.48;;
59659;SDS011;45534;52.690;6.268;2023-08-08T14:26:47;1.42;;;1.42;;
59659;SDS011;45534;52.690;6.268;2023-08-08T14:29:13;16.45;;;2.78;;
59659;SDS011;45534;52.690;6.268;2023-08-08T14:31:38;2.30;;;1.75;;
59659;SDS011;45534;52.690;6.268;2023-08-08T14:34:04;1.90;;;1.80;;
59659;SDS011;45534;52.690;6.268;2023-08-08T14:36:30;1.70;;;1.42;;
59659;SDS011;45534;52.690;6.268;2023-08-08T14:38:55;5.35;;;1.77;;
59659;SDS011;45534;52.690;6.268;2023-08-08T14:41:21;3.00;;;2.70;;
59659;SDS011;45534;52.690;6.268;2023-08-08T14:43:47;15.73;;;1.85;;
59659;SDS011;45534;52.690;6.268;2023-08-08T14:46:13;1.70;;;1.60;;